createdAt,value
2022-12-16T00:01:41.277Z,-1.40
2022-12-16T00:04:08.604Z,-1.40
2022-12-16T00:06:38.702Z,-1.30
2022-12-16T00:09:08.225Z,-1.30
2022-12-16T00:11:36.179Z,-1.30
2022-12-16T00:14:03.243Z,-1.20
2022-12-16T00:16:30.907Z,-1.20
2022-12-16T00:19:00.800Z,-1.20
2022-12-16T00:21:28.220Z,-1.20
2022-12-16T00:23:56.440Z,-1.20
2022-12-16T00:26:24.333Z,-1.10
2022-12-16T00:28:51.465Z,-1.10
2022-12-16T00:31:19.205Z,-1.10
2022-12-16T00:33:48.777Z,-1.10
2022-12-16T00:36:16.144Z,-1.10
2022-12-16T00:38:43.143Z,-1.10
2022-12-16T00:41:10.638Z,-1.10
2022-12-16T00:43:40.192Z,-1.10
2022-12-16T00:46:07.566Z,-1.20
2022-12-16T00:48:34.941Z,-1.30
2022-12-16T00:51:02.529Z,-1.40
2022-12-16T00:53:29.798Z,-1.40
2022-12-16T00:56:09.069Z,-1.50
2022-12-16T00:58:36.953Z,-1.60
2022-12-16T01:01:05.589Z,-1.60
2022-12-16T01:03:33.334Z,-1.60
2022-12-16T01:06:00.836Z,-1.60
2022-12-16T01:08:28.098Z,-1.50
2022-12-16T01:10:57.395Z,-1.50
2022-12-16T01:13:26.845Z,-1.50
2022-12-16T01:16:00.351Z,-1.50
2022-12-16T01:18:27.385Z,-1.50
2022-12-16T01:20:54.876Z,-1.60
2022-12-16T01:23:21.998Z,-1.60
2022-12-16T01:25:55.644Z,-1.60
2022-12-16T01:28:24.984Z,-1.60
2022-12-16T01:31:03.899Z,-1.60
2022-12-16T01:33:33.541Z,-1.60
2022-12-16T01:36:07.235Z,-1.60
2022-12-16T01:38:35.560Z,-1.60
2022-12-16T01:41:03.917Z,-1.60
2022-12-16T01:43:34.971Z,-1.60
2022-12-16T01:46:14.917Z,-1.60
2022-12-16T01:48:56.437Z,-1.60
2022-12-16T01:51:26.590Z,-1.60
2022-12-16T01:54:00.629Z,-1.70
2022-12-16T01:56:31.687Z,-1.70
2022-12-16T01:59:00.149Z,-1.70
2022-12-16T02:01:27.747Z,-1.80
2022-12-16T02:03:58.817Z,-1.90
2022-12-16T02:06:28.731Z,-2.00
2022-12-16T02:09:00.943Z,-2.00
2022-12-16T02:11:43.244Z,-2.10
2022-12-16T02:14:21.991Z,-2.10
2022-12-16T02:17:21.444Z,-2.10
2022-12-16T02:19:51.517Z,-2.10
2022-12-16T02:22:43.507Z,-2.20
2022-12-16T02:25:19.982Z,-2.20
2022-12-16T02:27:58.703Z,-2.20
2022-12-16T02:30:37.923Z,-2.20
2022-12-16T02:33:14.124Z,-2.20
2022-12-16T02:35:50.331Z,-2.20
2022-12-16T02:38:32.217Z,-2.20
2022-12-16T02:41:26.659Z,-2.20
2022-12-16T02:44:01.535Z,-2.10
2022-12-16T02:46:38.929Z,-2.10
2022-12-16T02:49:09.012Z,-2.10
2022-12-16T02:51:38.224Z,-2.10
2022-12-16T02:54:07.659Z,-2.10
2022-12-16T02:56:54.891Z,-2.20
2022-12-16T02:59:40.375Z,-2.30
2022-12-16T03:02:26.866Z,-2.40
2022-12-16T03:04:54.410Z,-2.40
2022-12-16T03:07:24.677Z,-2.40
2022-12-16T03:09:53.816Z,-2.40
2022-12-16T03:12:22.908Z,-2.40
2022-12-16T03:14:54.595Z,-2.40
2022-12-16T03:17:27.637Z,-2.40
2022-12-16T03:20:09.207Z,-2.40
2022-12-16T03:22:40.881Z,-2.40
2022-12-16T03:25:09.203Z,-2.40
2022-12-16T03:27:46.894Z,-2.40
2022-12-16T03:30:19.868Z,-2.40
2022-12-16T03:32:52.532Z,-2.50
2022-12-16T03:35:25.513Z,-2.50
2022-12-16T03:37:56.411Z,-2.40
2022-12-16T03:40:25.496Z,-2.40
2022-12-16T03:42:56.954Z,-2.40
2022-12-16T03:45:29.091Z,-2.50
2022-12-16T03:47:58.382Z,-2.50
2022-12-16T03:50:32.405Z,-2.50
2022-12-16T03:53:04.832Z,-2.50
2022-12-16T03:55:32.746Z,-2.50
2022-12-16T03:57:59.885Z,-2.50
2022-12-16T04:00:27.202Z,-2.50
2022-12-16T04:02:54.719Z,-2.50
2022-12-16T04:05:22.924Z,-2.50
2022-12-16T04:07:50.076Z,-2.50
2022-12-16T04:10:17.978Z,-2.40
2022-12-16T04:12:45.145Z,-2.40
2022-12-16T04:15:12.525Z,-2.40
2022-12-16T04:17:39.782Z,-2.40
2022-12-16T04:20:15.919Z,-2.40
2022-12-16T04:22:43.990Z,-2.30
2022-12-16T04:25:20.852Z,-2.30
2022-12-16T04:27:52.564Z,-2.30
2022-12-16T04:30:21.115Z,-2.20
2022-12-16T04:33:11.758Z,-2.20
2022-12-16T04:35:41.585Z,-2.20
2022-12-16T04:38:08.854Z,-2.10
2022-12-16T04:40:36.190Z,-2.10
2022-12-16T04:43:03.577Z,-2.10
2022-12-16T04:45:31.151Z,-2.10
2022-12-16T04:48:01.014Z,-2.10
2022-12-16T04:50:30.598Z,-2.10
2022-12-16T04:52:57.913Z,-2.10
2022-12-16T04:55:25.503Z,-2.10
2022-12-16T04:57:54.650Z,-2.10
2022-12-16T05:00:22.312Z,-2.10
2022-12-16T05:02:51.715Z,-2.10
2022-12-16T05:05:19.200Z,-2.20
2022-12-16T05:07:46.381Z,-2.20
2022-12-16T05:10:13.710Z,-2.30
2022-12-16T05:12:41.017Z,-2.30
2022-12-16T05:15:08.944Z,-2.30
2022-12-16T05:17:36.034Z,-2.40
2022-12-16T05:20:04.126Z,-2.40
2022-12-16T05:22:31.283Z,-2.40
2022-12-16T05:24:58.583Z,-2.50
2022-12-16T05:27:25.621Z,-2.50
2022-12-16T05:29:53.219Z,-2.50
2022-12-16T05:32:20.264Z,-2.50
2022-12-16T05:34:47.586Z,-2.50
2022-12-16T05:37:17.200Z,-2.50
2022-12-16T05:39:46.945Z,-2.40
2022-12-16T05:42:14.014Z,-2.40
2022-12-16T05:44:44.001Z,-2.40
2022-12-16T05:47:11.266Z,-2.30
2022-12-16T05:49:38.843Z,-2.30
2022-12-16T05:52:08.840Z,-2.30
2022-12-16T05:54:36.358Z,-2.20
2022-12-16T05:57:03.535Z,-2.20
2022-12-16T05:59:33.593Z,-2.20
2022-12-16T06:02:00.809Z,-2.20
2022-12-16T06:04:28.592Z,-2.20
2022-12-16T06:06:55.765Z,-2.20
2022-12-16T06:09:23.385Z,-2.20
2022-12-16T06:11:51.041Z,-2.20
2022-12-16T06:14:18.570Z,-2.20
2022-12-16T06:16:47.964Z,-2.20
2022-12-16T06:19:17.972Z,-2.20
2022-12-16T06:21:45.110Z,-2.20
2022-12-16T06:24:15.031Z,-2.20
2022-12-16T06:26:42.354Z,-2.20
2022-12-16T06:29:12.536Z,-2.20
2022-12-16T06:31:39.656Z,-2.20
2022-12-16T06:34:07.180Z,-2.20
2022-12-16T06:36:34.414Z,-2.30
2022-12-16T06:39:01.869Z,-2.30
2022-12-16T06:41:31.142Z,-2.30
2022-12-16T06:43:58.667Z,-2.30
2022-12-16T06:46:25.844Z,-2.20
2022-12-16T06:48:55.466Z,-2.20
2022-12-16T06:51:25.041Z,-2.20
2022-12-16T06:53:52.353Z,-2.20
2022-12-16T06:56:19.572Z,-2.20
2022-12-16T06:58:47.209Z,-2.20
2022-12-16T07:01:14.411Z,-2.20
2022-12-16T07:03:42.302Z,-2.20
2022-12-16T07:06:10.030Z,-2.20
2022-12-16T07:08:37.739Z,-2.20
2022-12-16T07:11:16.043Z,-2.20
2022-12-16T07:13:45.515Z,-2.20
2022-12-16T07:16:15.210Z,-2.10
2022-12-16T07:18:42.652Z,-2.20
2022-12-16T07:21:12.172Z,-2.20
2022-12-16T07:23:39.643Z,-2.20
2022-12-16T07:26:06.737Z,-2.20
2022-12-16T07:28:34.343Z,-2.20
2022-12-16T07:31:03.894Z,-2.20
2022-12-16T07:33:31.451Z,-2.20
2022-12-16T07:35:58.973Z,-2.10
2022-12-16T07:38:26.329Z,-2.10
2022-12-16T07:40:53.342Z,-2.20
2022-12-16T07:43:21.048Z,-2.10
2022-12-16T07:45:48.257Z,-2.10
2022-12-16T07:48:15.706Z,-2.20
2022-12-16T07:50:43.109Z,-2.20
2022-12-16T07:53:10.449Z,-2.20
2022-12-16T07:55:37.462Z,-2.20
2022-12-16T07:58:05.131Z,-2.20
2022-12-16T08:00:34.525Z,-2.10
2022-12-16T08:03:02.005Z,-2.10
2022-12-16T08:05:29.374Z,-2.20
2022-12-16T08:07:56.829Z,-2.20
2022-12-16T08:10:23.883Z,-2.20
2022-12-16T08:12:51.542Z,-2.20
2022-12-16T08:15:18.655Z,-2.20
2022-12-16T08:17:50.655Z,-2.10
2022-12-16T08:20:22.052Z,-2.00
2022-12-16T08:22:51.916Z,-2.00
2022-12-16T08:25:21.891Z,-1.90
2022-12-16T08:27:56.831Z,-1.80
2022-12-16T08:30:23.849Z,-1.80
2022-12-16T08:32:57.181Z,-1.80
2022-12-16T08:35:26.213Z,-1.80
2022-12-16T08:37:57.185Z,-1.70
2022-12-16T08:40:35.439Z,-1.70
2022-12-16T08:43:10.973Z,-1.70
2022-12-16T08:45:40.311Z,-1.70
2022-12-16T08:48:08.173Z,-1.80
2022-12-16T08:50:35.229Z,-1.80
2022-12-16T08:53:04.873Z,-1.70
2022-12-16T08:55:32.019Z,-1.70
2022-12-16T08:57:59.524Z,-1.70
2022-12-16T09:00:29.177Z,-1.60
2022-12-16T09:02:57.864Z,-1.50
2022-12-16T09:05:25.185Z,-1.40
2022-12-16T09:07:52.570Z,-1.40
2022-12-16T09:10:22.055Z,-1.30
2022-12-16T09:12:49.451Z,-1.30
2022-12-16T09:15:19.114Z,-1.20
2022-12-16T09:17:52.995Z,-1.10
2022-12-16T09:20:22.973Z,-1.00
2022-12-16T09:22:53.069Z,-0.90
2022-12-16T09:25:22.388Z,-0.70
2022-12-16T09:27:50.360Z,-0.70
2022-12-16T09:30:18.280Z,-0.60
2022-12-16T09:32:47.857Z,-0.50
2022-12-16T10:29:22.609Z,-1.20
2022-12-16T10:31:50.733Z,-1.20
2022-12-16T10:34:27.941Z,-1.20
2022-12-16T10:36:58.087Z,-1.10
2022-12-16T10:39:31.560Z,-1.10
2022-12-16T10:42:00.618Z,-1.10
2022-12-16T10:44:48.131Z,-1.10
2022-12-16T10:47:15.741Z,-1.00
2022-12-16T10:49:42.975Z,-1.00
2022-12-16T10:52:13.026Z,-0.90
2022-12-16T10:54:46.638Z,-0.80
2022-12-16T10:57:33.009Z,-0.80
2022-12-16T11:00:21.728Z,-0.80
2022-12-16T11:02:49.172Z,-0.80
2022-12-16T11:05:26.571Z,-0.80
2022-12-16T11:07:56.430Z,-0.90
2022-12-16T11:10:34.268Z,-0.90
2022-12-16T11:13:20.882Z,-0.80
2022-12-16T11:16:24.666Z,-0.70
2022-12-16T11:18:54.391Z,-0.70
2022-12-16T11:21:22.767Z,-0.60
2022-12-16T11:24:12.132Z,-0.60
2022-12-16T11:26:56.284Z,-0.50
2022-12-16T11:29:23.559Z,-0.40
2022-12-16T11:32:01.224Z,-0.30
2022-12-16T11:34:28.808Z,-0.20
2022-12-16T11:36:56.782Z,-0.10
2022-12-16T11:39:29.203Z,0.10
2022-12-16T11:41:59.341Z,0.10
2022-12-16T11:44:55.780Z,0.10
2022-12-16T11:47:40.119Z,0.00
2022-12-16T11:50:17.087Z,-0.20
2022-12-16T11:52:55.352Z,-0.20
2022-12-16T11:55:48.076Z,-0.20
2022-12-16T11:58:23.209Z,-0.30
2022-12-16T12:01:20.400Z,-0.40
2022-12-16T12:03:50.857Z,-0.50
2022-12-16T12:06:29.065Z,-0.60
2022-12-16T12:09:17.245Z,-0.60
2022-12-16T12:12:12.049Z,-0.60
2022-12-16T12:14:57.216Z,-0.50
2022-12-16T12:17:31.874Z,-0.60
2022-12-16T12:20:10.552Z,-0.70
2022-12-16T12:22:39.676Z,-0.70
2022-12-16T12:25:21.505Z,-0.70
2022-12-16T12:28:00.673Z,-0.80
2022-12-16T12:30:29.794Z,-0.80
2022-12-16T12:33:15.771Z,-0.80
2022-12-16T12:36:23.244Z,-0.80
2022-12-16T12:38:50.606Z,-0.80
2022-12-16T12:41:43.910Z,-0.90
2022-12-16T12:44:36.930Z,-0.90
2022-12-16T12:47:17.653Z,-0.80
2022-12-16T12:50:07.019Z,-0.70
2022-12-16T12:52:48.877Z,-0.70
2022-12-16T12:55:32.200Z,-0.80
2022-12-16T12:58:00.414Z,-0.80
2022-12-16T13:00:32.868Z,-0.90
2022-12-16T13:03:15.159Z,-1.10
2022-12-16T13:05:43.831Z,-1.10
2022-12-16T13:08:54.247Z,-1.20
2022-12-16T13:11:25.420Z,-1.20
2022-12-16T13:13:55.659Z,-1.20
2022-12-16T13:16:44.433Z,-1.20
2022-12-16T13:19:30.192Z,-1.10
2022-12-16T13:21:57.838Z,-1.20
2022-12-16T13:24:49.084Z,-1.20
2022-12-16T13:27:19.644Z,-1.30
2022-12-16T13:30:04.468Z,-1.40
2022-12-16T13:32:33.469Z,-1.50
2022-12-16T13:35:00.826Z,-1.50
2022-12-16T13:37:32.549Z,-1.50
2022-12-16T13:40:16.750Z,-1.50
2022-12-16T13:42:44.225Z,-1.50
2022-12-16T13:45:31.861Z,-1.50
2022-12-16T13:48:01.085Z,-1.50
2022-12-16T13:50:48.329Z,-1.50
2022-12-16T13:53:18.043Z,-1.50
2022-12-16T13:55:56.598Z,-1.60
2022-12-16T13:58:39.269Z,-1.60
2022-12-16T14:01:12.793Z,-1.60
2022-12-16T14:03:45.296Z,-1.60
2022-12-16T14:06:21.733Z,-1.60
2022-12-16T14:08:49.567Z,-1.60
2022-12-16T14:11:40.562Z,-1.60
2022-12-16T14:14:20.020Z,-1.50
2022-12-16T14:16:53.087Z,-1.60
2022-12-16T14:19:57.716Z,-1.60
2022-12-16T14:22:47.851Z,-1.60
2022-12-16T14:25:23.231Z,-1.60
2022-12-16T14:27:53.405Z,-1.60
2022-12-16T14:30:28.064Z,-1.60
2022-12-16T14:32:57.677Z,-1.60
2022-12-16T14:35:27.777Z,-1.60
2022-12-16T14:37:54.781Z,-1.60
2022-12-16T14:40:30.055Z,-1.60
2022-12-16T14:42:59.687Z,-1.60
2022-12-16T14:49:52.287Z,-1.50
2022-12-16T14:52:25.717Z,-1.50
2022-12-16T15:19:19.132Z,-1.10
2022-12-16T15:30:27.606Z,-1.10
2022-12-16T15:32:56.619Z,-1.10
2022-12-16T15:35:25.479Z,-1.10
2022-12-16T15:37:52.898Z,-1.10
2022-12-16T15:40:23.046Z,-1.10
2022-12-16T15:42:52.989Z,-1.10
2022-12-16T15:45:32.894Z,-1.10
2022-12-16T15:48:11.074Z,-1.20
2022-12-16T15:50:38.474Z,-1.20
2022-12-16T15:53:29.435Z,-1.20
2022-12-16T15:56:04.707Z,-1.20
2022-12-16T15:58:35.611Z,-1.20
2022-12-16T16:01:02.882Z,-1.10
2022-12-16T16:03:32.319Z,-1.10
2022-12-16T16:06:02.474Z,-1.10
2022-12-16T16:08:36.118Z,-1.10
2022-12-16T16:11:05.755Z,-1.10
2022-12-16T16:13:35.709Z,-1.10
2022-12-16T16:16:06.168Z,-1.10
2022-12-16T16:18:34.398Z,-1.10
2022-12-16T16:21:04.228Z,-1.10
2022-12-16T16:23:32.651Z,-1.10
2022-12-16T16:26:03.818Z,-1.10
2022-12-16T16:28:35.100Z,-1.20
2022-12-16T16:31:02.487Z,-1.20
2022-12-16T16:33:29.874Z,-1.30
2022-12-16T16:35:59.380Z,-1.30
2022-12-16T16:38:29.282Z,-1.40
2022-12-16T16:40:56.475Z,-1.40
2022-12-16T16:43:24.836Z,-1.40
2022-12-16T16:45:57.843Z,-1.40
2022-12-16T16:48:27.041Z,-1.50
2022-12-16T16:50:57.197Z,-1.40
2022-12-16T16:53:24.479Z,-1.40
2022-12-16T16:55:54.769Z,-1.40
2022-12-16T16:58:27.175Z,-1.40
2022-12-16T17:00:56.986Z,-1.30
2022-12-16T17:03:24.878Z,-1.40
2022-12-16T17:05:52.065Z,-1.30
2022-12-16T17:08:19.749Z,-1.40
2022-12-16T17:10:47.624Z,-1.40
2022-12-16T17:13:14.996Z,-1.40
2022-12-16T17:15:42.206Z,-1.40
2022-12-16T17:18:12.160Z,-1.40
2022-12-16T17:20:39.210Z,-1.30
2022-12-16T17:23:07.000Z,-1.40
2022-12-16T17:25:36.655Z,-1.40
2022-12-16T17:28:07.236Z,-1.40
2022-12-16T17:30:34.474Z,-1.40
2022-12-16T17:33:02.439Z,-1.40
2022-12-16T17:35:29.519Z,-1.30
2022-12-16T17:37:57.265Z,-1.30
2022-12-16T17:40:26.785Z,-1.40
2022-12-16T17:42:54.100Z,-1.30
2022-12-16T17:45:23.740Z,-1.30
2022-12-16T17:47:51.265Z,-1.40
2022-12-16T17:50:20.875Z,-1.30
2022-12-16T17:52:52.978Z,-1.30
2022-12-16T17:55:20.074Z,-1.30
2022-12-16T17:57:47.384Z,-1.30
2022-12-16T18:00:17.870Z,-1.30
2022-12-16T18:02:45.696Z,-1.30
2022-12-16T18:05:15.623Z,-1.30
2022-12-16T18:07:43.170Z,-1.30
2022-12-16T18:10:10.213Z,-1.40
2022-12-16T18:12:37.931Z,-1.40
2022-12-16T18:15:05.453Z,-1.40
2022-12-16T18:17:32.829Z,-1.50
2022-12-16T18:19:59.853Z,-1.50
2022-12-16T18:22:27.378Z,-1.50
2022-12-16T18:24:54.477Z,-1.50
2022-12-16T18:27:21.765Z,-1.50
2022-12-16T18:29:48.894Z,-1.60
2022-12-16T18:32:16.346Z,-1.50
2022-12-16T18:34:43.395Z,-1.50
2022-12-16T18:37:13.865Z,-1.50
2022-12-16T18:39:43.385Z,-1.40
2022-12-16T18:42:13.242Z,-1.40
2022-12-16T18:44:40.510Z,-1.40
2022-12-16T18:47:10.407Z,-1.40
2022-12-16T18:49:37.455Z,-1.40
2022-12-16T18:52:07.500Z,-1.40
2022-12-16T18:54:36.998Z,-1.40
2022-12-16T18:57:04.333Z,-1.30
2022-12-16T18:59:33.729Z,-1.40
2022-12-16T19:02:01.205Z,-1.40
2022-12-16T19:04:28.453Z,-1.40
2022-12-16T19:06:58.157Z,-1.40
2022-12-16T19:09:25.251Z,-1.50
2022-12-16T19:11:52.633Z,-1.50
2022-12-16T19:14:19.894Z,-1.50
2022-12-16T19:16:49.723Z,-1.50
2022-12-16T19:19:20.224Z,-1.50
2022-12-16T19:21:51.752Z,-1.50
2022-12-16T19:24:21.678Z,-1.50
2022-12-16T19:26:49.447Z,-1.60
2022-12-16T19:29:16.596Z,-1.60
2022-12-16T19:31:44.221Z,-1.70
2022-12-16T19:34:11.547Z,-1.70
2022-12-16T19:36:43.826Z,-1.70
2022-12-16T19:39:14.020Z,-1.60
2022-12-16T19:41:41.470Z,-1.70
2022-12-16T19:44:11.259Z,-1.70
2022-12-16T19:46:43.302Z,-1.70
2022-12-16T19:49:13.536Z,-1.70
2022-12-16T19:51:41.113Z,-1.70
2022-12-16T19:54:09.095Z,-1.70
2022-12-16T19:56:36.527Z,-1.70
2022-12-16T19:59:03.827Z,-1.70
2022-12-16T20:01:31.463Z,-1.70
2022-12-16T20:04:00.141Z,-1.70
2022-12-16T20:06:27.660Z,-1.70
2022-12-16T20:08:57.554Z,-1.70
2022-12-16T20:11:24.867Z,-1.70
2022-12-16T20:13:56.283Z,-1.70
2022-12-16T20:16:23.729Z,-1.80
2022-12-16T20:18:50.947Z,-1.80
2022-12-16T20:21:21.789Z,-1.80
2022-12-16T20:23:49.325Z,-1.80
2022-12-16T20:26:16.937Z,-1.80
2022-12-16T20:28:44.500Z,-1.80
2022-12-16T20:31:11.893Z,-1.90
2022-12-16T20:33:41.579Z,-1.90
2022-12-16T20:36:10.135Z,-1.80
2022-12-16T20:38:39.737Z,-1.80
2022-12-16T20:41:09.354Z,-1.70
2022-12-16T20:43:37.022Z,-1.70
2022-12-16T20:46:04.862Z,-1.70
2022-12-16T20:48:31.918Z,-1.70
2022-12-16T20:51:03.733Z,-1.70
2022-12-16T20:53:33.102Z,-1.60
2022-12-16T20:56:03.558Z,-1.60
2022-12-16T20:58:30.665Z,-1.60
2022-12-16T21:00:58.136Z,-1.50
2022-12-16T21:03:25.981Z,-1.50
2022-12-16T21:05:54.125Z,-1.50
2022-12-16T21:08:23.265Z,-1.60
2022-12-16T21:10:51.634Z,-1.60
2022-12-16T21:13:19.176Z,-1.70
2022-12-16T21:15:46.557Z,-1.70
2022-12-16T21:18:14.268Z,-1.80
2022-12-16T21:20:41.684Z,-1.80
2022-12-16T21:23:09.865Z,-1.80
2022-12-16T21:25:38.487Z,-1.80
2022-12-16T21:28:07.846Z,-1.80
2022-12-16T21:30:35.362Z,-1.80
2022-12-16T21:33:02.882Z,-1.80
2022-12-16T21:35:30.250Z,-1.80
2022-12-16T21:37:57.508Z,-1.80
2022-12-16T21:40:27.515Z,-1.80
2022-12-16T21:42:56.233Z,-1.80
2022-12-16T21:45:26.552Z,-1.80
2022-12-16T21:47:54.290Z,-1.80
2022-12-16T21:50:23.626Z,-1.90
2022-12-16T21:52:52.939Z,-1.90
2022-12-16T21:55:26.019Z,-1.90
2022-12-16T21:57:53.586Z,-1.90
2022-12-16T22:00:23.936Z,-1.90
2022-12-16T22:02:51.025Z,-1.90
2022-12-16T22:05:19.737Z,-1.90
2022-12-16T22:07:46.983Z,-1.90
2022-12-16T22:10:16.818Z,-1.90
2022-12-16T22:12:43.932Z,-1.90
2022-12-16T22:15:13.800Z,-1.90
2022-12-16T22:17:40.924Z,-1.90
2022-12-16T22:20:13.270Z,-1.90
2022-12-16T22:22:40.292Z,-1.80
2022-12-16T22:25:14.227Z,-1.90
2022-12-16T22:27:44.322Z,-1.90
2022-12-16T22:30:14.184Z,-1.80
2022-12-16T22:32:41.248Z,-1.80
2022-12-16T22:35:09.267Z,-1.90
2022-12-16T22:37:38.971Z,-1.90
2022-12-16T22:40:09.287Z,-1.90
2022-12-16T22:42:39.565Z,-1.90
2022-12-16T22:45:07.177Z,-1.90
2022-12-16T22:47:34.399Z,-1.90
2022-12-16T22:50:02.156Z,-1.90
2022-12-16T22:52:31.593Z,-1.70
2022-12-16T22:54:59.320Z,-1.60
2022-12-16T22:57:31.299Z,-1.40
2022-12-16T23:00:01.032Z,-1.30
2022-12-16T23:02:28.485Z,-1.30
2022-12-16T23:04:58.369Z,-1.30
2022-12-16T23:07:25.649Z,-1.40
2022-12-16T23:12:40.419Z,-1.50
2022-12-16T23:15:13.067Z,-1.60
2022-12-16T23:17:42.562Z,-1.60
2022-12-16T23:20:10.772Z,-1.60
2022-12-16T23:22:40.440Z,-1.60
2022-12-16T23:25:08.536Z,-1.60
2022-12-16T23:27:36.807Z,-1.60
2022-12-16T23:30:06.868Z,-1.60
2022-12-16T23:35:01.578Z,-1.60
2022-12-16T23:37:31.079Z,-1.60
2022-12-16T23:40:01.041Z,-1.60
2022-12-16T23:42:30.667Z,-1.60
2022-12-16T23:44:57.961Z,-1.60
2022-12-16T23:47:25.157Z,-1.60
2022-12-16T23:49:56.388Z,-1.60
2022-12-16T23:52:23.708Z,-1.60
2022-12-16T23:54:53.383Z,-1.60
2022-12-16T23:57:23.412Z,-1.60
2022-12-16T23:59:51.037Z,-1.60
